sensor_id;sensor_type;location;lat;lon;timestamp;pressure;altitude;pressure_sealevel;temperature;humidity
58668;BME280;59852;43.086;25.634;2023-05-08T00:01:53;98991.66;;;14.71;51.32
58668;BME280;59852;43.086;25.634;2023-05-08T00:04:19;98993.28;;;14.62;51.12
58668;BME280;59852;43.086;25.634;2023-05-08T00:06:45;98996.53;;;14.55;51.18
58668;BME280;59852;43.086;25.634;2023-05-08T00:09:10;98993.00;;;14.45;50.90
58668;BME280;59852;43.086;25.634;2023-05-08T00:11:35;98988.22;;;14.50;50.94
58668;BME280;59852;43.086;25.634;2023-05-08T00:14:01;98991.09;;;14.47;50.79
58668;BME280;59852;43.086;25.634;2023-05-08T00:16:26;98994.88;;;14.54;51.17
58668;BME280;59852;43.086;25.634;2023-05-08T00:18:51;98987.84;;;14.43;50.69
58668;BME280;59852;43.086;25.634;2023-05-08T00:21:18;98983.53;;;14.42;50.44
58668;BME280;59852;43.086;25.634;2023-05-08T00:23:43;98984.34;;;14.54;50.25
58668;BME280;59852;43.086;25.634;2023-05-08T00:26:09;98978.00;;;14.56;49.36
58668;BME280;59852;43.086;25.634;2023-05-08T00:28:34;98981.16;;;14.50;48.75
58668;BME280;59852;43.086;25.634;2023-05-08T00:30:59;98980.69;;;14.45;49.68
58668;BME280;59852;43.086;25.634;2023-05-08T00:33:26;98979.91;;;14.54;49.02
58668;BME280;59852;43.086;25.634;2023-05-08T00:35:57;98973.72;;;14.55;48.87
58668;BME280;59852;43.086;25.634;2023-05-08T00:38:22;98972.41;;;14.50;48.83
58668;BME280;59852;43.086;25.634;2023-05-08T00:40:47;98969.94;;;14.37;49.41
58668;BME280;59852;43.086;25.634;2023-05-08T00:43:13;98979.47;;;14.49;49.35
58668;BME280;59852;43.086;25.634;2023-05-08T00:45:38;98977.56;;;14.51;48.91
58668;BME280;59852;43.086;25.634;2023-05-08T00:48:04;98982.94;;;14.50;49.27
58668;BME280;59852;43.086;25.634;2023-05-08T00:50:30;98977.69;;;14.50;49.55
58668;BME280;59852;43.086;25.634;2023-05-08T00:52:55;98978.91;;;14.46;50.16
58668;BME280;59852;43.086;25.634;2023-05-08T00:55:22;98978.25;;;14.53;49.23
58668;BME280;59852;43.086;25.634;2023-05-08T00:57:47;98984.03;;;14.47;48.90
58668;BME280;59852;43.086;25.634;2023-05-08T01:00:14;98983.75;;;14.29;49.80
58668;BME280;59852;43.086;25.634;2023-05-08T01:02:40;98984.78;;;14.38;49.38
58668;BME280;59852;43.086;25.634;2023-05-08T01:05:06;98988.38;;;14.37;48.49
58668;BME280;59852;43.086;25.634;2023-05-08T01:07:32;98988.09;;;14.40;49.09
58668;BME280;59852;43.086;25.634;2023-05-08T01:09:57;98989.91;;;14.40;49.16
58668;BME280;59852;43.086;25.634;2023-05-08T01:12:25;98985.53;;;14.29;49.63
58668;BME280;59852;43.086;25.634;2023-05-08T01:20:22;98987.34;;;14.28;50.31
58668;BME280;59852;43.086;25.634;2023-05-08T01:22:52;98986.38;;;14.29;50.15
58668;BME280;59852;43.086;25.634;2023-05-08T01:32:57;98978.16;;;13.91;50.99
58668;BME280;59852;43.086;25.634;2023-05-08T01:35:26;98970.25;;;13.91;51.65
58668;BME280;59852;43.086;25.634;2023-05-08T01:38:09;98974.81;;;13.89;52.38
58668;BME280;59852;43.086;25.634;2023-05-08T01:40:51;98971.34;;;13.88;53.04
58668;BME280;59852;43.086;25.634;2023-05-08T01:45:52;98971.53;;;13.64;53.04
58668;BME280;59852;43.086;25.634;2023-05-08T01:48:26;98966.72;;;13.81;52.62
58668;BME280;59852;43.086;25.634;2023-05-08T01:50:55;98979.13;;;13.90;52.44
58668;BME280;59852;43.086;25.634;2023-05-08T01:53:37;98971.69;;;14.16;53.57
58668;BME280;59852;43.086;25.634;2023-05-08T01:56:09;98978.09;;;14.02;52.24
58668;BME280;59852;43.086;25.634;2023-05-08T01:58:35;98972.66;;;13.83;52.70
58668;BME280;59852;43.086;25.634;2023-05-08T02:01:02;98972.72;;;13.71;52.22
58668;BME280;59852;43.086;25.634;2023-05-08T02:03:28;98975.34;;;13.71;52.72
58668;BME280;59852;43.086;25.634;2023-05-08T02:05:55;98975.69;;;13.78;51.85
58668;BME280;59852;43.086;25.634;2023-05-08T02:08:21;98972.44;;;13.74;51.97
58668;BME280;59852;43.086;25.634;2023-05-08T02:10:48;98967.19;;;13.74;52.13
58668;BME280;59852;43.086;25.634;2023-05-08T02:13:14;98968.06;;;13.64;52.21
58668;BME280;59852;43.086;25.634;2023-05-08T02:15:44;98972.13;;;13.68;52.10
58668;BME280;59852;43.086;25.634;2023-05-08T02:18:11;98973.00;;;13.57;52.32
58668;BME280;59852;43.086;25.634;2023-05-08T02:20:37;98962.91;;;13.73;52.25
58668;BME280;59852;43.086;25.634;2023-05-08T02:23:04;98962.81;;;13.64;52.10
58668;BME280;59852;43.086;25.634;2023-05-08T02:25:30;98963.22;;;13.48;52.54
58668;BME280;59852;43.086;25.634;2023-05-08T02:27:56;98956.63;;;13.54;52.75
58668;BME280;59852;43.086;25.634;2023-05-08T02:30:23;98965.47;;;13.41;52.44
58668;BME280;59852;43.086;25.634;2023-05-08T02:32:49;98956.06;;;13.39;52.42
58668;BME280;59852;43.086;25.634;2023-05-08T02:35:17;98960.34;;;13.40;52.51
58668;BME280;59852;43.086;25.634;2023-05-08T02:37:44;98958.06;;;13.35;52.96
58668;BME280;59852;43.086;25.634;2023-05-08T02:40:10;98957.38;;;13.33;53.22
58668;BME280;59852;43.086;25.634;2023-05-08T02:42:36;98964.41;;;13.33;54.01
58668;BME280;59852;43.086;25.634;2023-05-08T02:45:02;98963.31;;;13.35;53.40
58668;BME280;59852;43.086;25.634;2023-05-08T02:52:39;98963.34;;;13.24;52.99
58668;BME280;59852;43.086;25.634;2023-05-08T02:55:15;98964.53;;;13.42;53.48
58668;BME280;59852;43.086;25.634;2023-05-08T03:05:05;98968.56;;;13.13;54.52
58668;BME280;59852;43.086;25.634;2023-05-08T03:07:35;98971.69;;;13.18;53.89
58668;BME280;59852;43.086;25.634;2023-05-08T03:10:03;98963.91;;;13.16;53.53
58668;BME280;59852;43.086;25.634;2023-05-08T03:12:29;98965.59;;;13.17;54.07
58668;BME280;59852;43.086;25.634;2023-05-08T03:17:21;98968.94;;;13.08;55.11
58668;BME280;59852;43.086;25.634;2023-05-08T03:19:48;98970.97;;;12.93;55.56
58668;BME280;59852;43.086;25.634;2023-05-08T03:22:16;98962.25;;;13.04;55.77
58668;BME280;59852;43.086;25.634;2023-05-08T03:24:43;98970.00;;;13.17;55.26
58668;BME280;59852;43.086;25.634;2023-05-08T03:27:10;98967.50;;;13.15;55.37
58668;BME280;59852;43.086;25.634;2023-05-08T03:29:37;98964.88;;;13.27;55.71
58668;BME280;59852;43.086;25.634;2023-05-08T03:32:03;98970.25;;;13.14;55.62
58668;BME280;59852;43.086;25.634;2023-05-08T03:34:30;98969.81;;;13.20;55.90
58668;BME280;59852;43.086;25.634;2023-05-08T03:36:56;98976.91;;;13.07;56.01
58668;BME280;59852;43.086;25.634;2023-05-08T03:39:21;98968.81;;;13.10;56.05
58668;BME280;59852;43.086;25.634;2023-05-08T03:41:48;98972.88;;;13.14;54.99
58668;BME280;59852;43.086;25.634;2023-05-08T03:44:15;98977.28;;;13.13;56.03
58668;BME280;59852;43.086;25.634;2023-05-08T03:46:41;98969.88;;;13.07;56.62
58668;BME280;59852;43.086;25.634;2023-05-08T03:49:08;98972.50;;;13.07;56.29
58668;BME280;59852;43.086;25.634;2023-05-08T03:51:35;98984.91;;;13.05;56.77
58668;BME280;59852;43.086;25.634;2023-05-08T03:54:02;98980.88;;;13.01;56.78
58668;BME280;59852;43.086;25.634;2023-05-08T03:56:28;98987.19;;;13.10;56.89
58668;BME280;59852;43.086;25.634;2023-05-08T03:59:00;98990.44;;;13.25;56.06
58668;BME280;59852;43.086;25.634;2023-05-08T04:14:54;98997.25;;;13.38;57.36
58668;BME280;59852;43.086;25.634;2023-05-08T04:17:40;98988.75;;;13.12;59.09
58668;BME280;59852;43.086;25.634;2023-05-08T04:20:06;98993.56;;;13.41;59.63
58668;BME280;59852;43.086;25.634;2023-05-08T04:22:33;98997.00;;;13.41;61.12
58668;BME280;59852;43.086;25.634;2023-05-08T04:25:00;99003.56;;;13.58;61.16
58668;BME280;59852;43.086;25.634;2023-05-08T04:27:27;98998.88;;;13.62;62.02
58668;BME280;59852;43.086;25.634;2023-05-08T04:29:52;99003.09;;;13.53;61.86
58668;BME280;59852;43.086;25.634;2023-05-08T04:32:18;99001.38;;;13.63;62.10
58668;BME280;59852;43.086;25.634;2023-05-08T04:34:44;99001.38;;;13.74;60.01
58668;BME280;59852;43.086;25.634;2023-05-08T04:37:20;98998.66;;;13.54;60.33
58668;BME280;59852;43.086;25.634;2023-05-08T04:39:49;98994.19;;;13.88;59.03
58668;BME280;59852;43.086;25.634;2023-05-08T04:42:14;98990.72;;;13.87;60.06
58668;BME280;59852;43.086;25.634;2023-05-08T04:44:40;98994.53;;;13.83;58.74
58668;BME280;59852;43.086;25.634;2023-05-08T04:47:05;98997.88;;;13.96;57.34
58668;BME280;59852;43.086;25.634;2023-05-08T04:49:30;98990.81;;;13.97;57.23
58668;BME280;59852;43.086;25.634;2023-05-08T04:51:56;98997.69;;;14.09;56.28
58668;BME280;59852;43.086;25.634;2023-05-08T04:54:21;98993.28;;;14.10;54.79
58668;BME280;59852;43.086;25.634;2023-05-08T04:56:46;98994.34;;;14.07;54.30
58668;BME280;59852;43.086;25.634;2023-05-08T04:59:12;98989.63;;;14.22;53.53
58668;BME280;59852;43.086;25.634;2023-05-08T05:01:37;98985.91;;;14.24;52.13
58668;BME280;59852;43.086;25.634;2023-05-08T05:04:02;98985.03;;;14.03;53.32
58668;BME280;59852;43.086;25.634;2023-05-08T05:06:28;98988.44;;;14.26;52.78
58668;BME280;59852;43.086;25.634;2023-05-08T05:08:53;98988.03;;;14.30;52.70
58668;BME280;59852;43.086;25.634;2023-05-08T05:11:19;98986.56;;;14.38;52.46
58668;BME280;59852;43.086;25.634;2023-05-08T05:13:45;98984.50;;;14.20;52.85
58668;BME280;59852;43.086;25.634;2023-05-08T05:16:10;98990.38;;;14.45;52.23
58668;BME280;59852;43.086;25.634;2023-05-08T05:18:36;98987.94;;;14.53;52.07
58668;BME280;59852;43.086;25.634;2023-05-08T05:21:01;98980.25;;;14.61;51.90
58668;BME280;59852;43.086;25.634;2023-05-08T05:23:27;98989.16;;;14.70;51.36
58668;BME280;59852;43.086;25.634;2023-05-08T05:25:53;98985.03;;;14.98;51.17
58668;BME280;59852;43.086;25.634;2023-05-08T05:28:18;98998.19;;;14.98;52.07
58668;BME280;59852;43.086;25.634;2023-05-08T05:30:45;98989.00;;;15.23;49.85
58668;BME280;59852;43.086;25.634;2023-05-08T05:33:11;98984.44;;;15.15;50.15
58668;BME280;59852;43.086;25.634;2023-05-08T05:35:36;98984.56;;;15.23;49.75
58668;BME280;59852;43.086;25.634;2023-05-08T05:38:01;98987.94;;;15.25;50.11
58668;BME280;59852;43.086;25.634;2023-05-08T05:40:27;98986.94;;;14.65;51.19
58668;BME280;59852;43.086;25.634;2023-05-08T05:42:52;98994.16;;;14.93;51.34
58668;BME280;59852;43.086;25.634;2023-05-08T05:45:17;98979.25;;;14.83;50.76
58668;BME280;59852;43.086;25.634;2023-05-08T05:47:44;98980.56;;;14.47;51.94
58668;BME280;59852;43.086;25.634;2023-05-08T05:50:10;98985.25;;;14.85;51.54
58668;BME280;59852;43.086;25.634;2023-05-08T05:52:36;98982.81;;;14.72;51.13
58668;BME280;59852;43.086;25.634;2023-05-08T05:55:01;98984.44;;;14.94;51.61
58668;BME280;59852;43.086;25.634;2023-05-08T05:57:27;98978.19;;;15.16;52.28
58668;BME280;59852;43.086;25.634;2023-05-08T05:59:52;98977.94;;;15.29;50.89
58668;BME280;59852;43.086;25.634;2023-05-08T06:02:17;98972.16;;;15.75;50.74
58668;BME280;59852;43.086;25.634;2023-05-08T06:04:44;98969.41;;;16.05;50.27
58668;BME280;59852;43.086;25.634;2023-05-08T06:07:10;98965.25;;;16.22;49.78
58668;BME280;59852;43.086;25.634;2023-05-08T06:09:35;98959.38;;;15.80;49.30
58668;BME280;59852;43.086;25.634;2023-05-08T06:12:00;98950.34;;;16.21;48.72
58668;BME280;59852;43.086;25.634;2023-05-08T06:14:26;98955.50;;;16.32;48.16
58668;BME280;59852;43.086;25.634;2023-05-08T06:16:51;98955.75;;;16.39;47.88
58668;BME280;59852;43.086;25.634;2023-05-08T06:19:16;98958.38;;;16.58;48.76
58668;BME280;59852;43.086;25.634;2023-05-08T06:21:42;98958.78;;;16.73;47.38
58668;BME280;59852;43.086;25.634;2023-05-08T06:24:07;98961.69;;;16.70;47.28
58668;BME280;59852;43.086;25.634;2023-05-08T06:26:33;98955.72;;;16.78;47.21
58668;BME280;59852;43.086;25.634;2023-05-08T06:28:58;98962.47;;;16.90;47.07
58668;BME280;59852;43.086;25.634;2023-05-08T06:31:24;98952.44;;;17.03;46.91
58668;BME280;59852;43.086;25.634;2023-05-08T06:33:49;98959.97;;;16.98;46.20
58668;BME280;59852;43.086;25.634;2023-05-08T06:36:14;98953.47;;;16.92;46.61
58668;BME280;59852;43.086;25.634;2023-05-08T06:38:40;98953.72;;;16.89;46.45
58668;BME280;59852;43.086;25.634;2023-05-08T06:41:05;98950.56;;;17.23;46.56
58668;BME280;59852;43.086;25.634;2023-05-08T06:43:31;98946.97;;;17.14;45.73
58668;BME280;59852;43.086;25.634;2023-05-08T06:45:56;98947.28;;;17.11;47.41
58668;BME280;59852;43.086;25.634;2023-05-08T06:48:22;98944.19;;;17.16;46.59
58668;BME280;59852;43.086;25.634;2023-05-08T06:50:49;98943.97;;;17.27;46.42
58668;BME280;59852;43.086;25.634;2023-05-08T06:53:15;98935.59;;;17.04;46.81
58668;BME280;59852;43.086;25.634;2023-05-08T06:55:43;98941.59;;;17.34;46.54
58668;BME280;59852;43.086;25.634;2023-05-08T06:58:09;98941.41;;;17.63;46.01
58668;BME280;59852;43.086;25.634;2023-05-08T07:00:34;98942.91;;;17.93;46.58
58668;BME280;59852;43.086;25.634;2023-05-08T07:03:00;98938.59;;;18.10;46.30
58668;BME280;59852;43.086;25.634;2023-05-08T07:05:25;98938.88;;;18.06;46.44
58668;BME280;59852;43.086;25.634;2023-05-08T07:07:50;98940.09;;;17.76;45.44
58668;BME280;59852;43.086;25.634;2023-05-08T07:10:18;98936.78;;;18.10;45.95
58668;BME280;59852;43.086;25.634;2023-05-08T07:12:45;98937.66;;;18.37;46.18
58668;BME280;59852;43.086;25.634;2023-05-08T07:15:10;98936.44;;;18.49;46.48
58668;BME280;59852;43.086;25.634;2023-05-08T07:17:35;98943.13;;;18.61;45.47
58668;BME280;59852;43.086;25.634;2023-05-08T07:20:02;98938.91;;;18.68;45.31
58668;BME280;59852;43.086;25.634;2023-05-08T07:22:27;98935.00;;;18.80;45.50
58668;BME280;59852;43.086;25.634;2023-05-08T07:24:53;98934.34;;;18.78;44.92
58668;BME280;59852;43.086;25.634;2023-05-08T07:27:18;98930.94;;;18.94;44.80
58668;BME280;59852;43.086;25.634;2023-05-08T07:29:44;98935.13;;;18.53;43.92
58668;BME280;59852;43.086;25.634;2023-05-08T07:32:09;98932.13;;;18.74;44.81
58668;BME280;59852;43.086;25.634;2023-05-08T07:34:34;98930.22;;;19.18;44.80
58668;BME280;59852;43.086;25.634;2023-05-08T07:37:00;98932.50;;;18.79;44.64
58668;BME280;59852;43.086;25.634;2023-05-08T07:39:25;98927.94;;;18.89;45.06
58668;BME280;59852;43.086;25.634;2023-05-08T07:41:50;98927.41;;;19.19;45.77
58668;BME280;59852;43.086;25.634;2023-05-08T07:44:16;98920.88;;;19.06;45.48
58668;BME280;59852;43.086;25.634;2023-05-08T07:46:41;98926.13;;;19.32;45.47
58668;BME280;59852;43.086;25.634;2023-05-08T07:49:07;98926.19;;;19.48;45.57
58668;BME280;59852;43.086;25.634;2023-05-08T07:51:32;98922.13;;;19.70;45.66
58668;BME280;59852;43.086;25.634;2023-05-08T07:53:57;98917.91;;;19.51;44.75
58668;BME280;59852;43.086;25.634;2023-05-08T07:56:23;98921.72;;;19.48;45.20
58668;BME280;59852;43.086;25.634;2023-05-08T07:58:48;98919.34;;;19.45;45.00
58668;BME280;59852;43.086;25.634;2023-05-08T08:01:13;98911.19;;;19.81;45.45
58668;BME280;59852;43.086;25.634;2023-05-08T08:03:41;98911.19;;;19.81;43.96
58668;BME280;59852;43.086;25.634;2023-05-08T08:06:07;98908.84;;;19.70;45.30
58668;BME280;59852;43.086;25.634;2023-05-08T08:08:32;98904.91;;;19.90;44.88
58668;BME280;59852;43.086;25.634;2023-05-08T08:10:57;98902.41;;;19.89;44.85
58668;BME280;59852;43.086;25.634;2023-05-08T08:13:23;98907.88;;;19.95;44.47
58668;BME280;59852;43.086;25.634;2023-05-08T08:15:48;98912.03;;;20.14;44.99
58668;BME280;59852;43.086;25.634;2023-05-08T08:18:14;98913.03;;;20.21;44.71
58668;BME280;59852;43.086;25.634;2023-05-08T08:20:39;98919.00;;;20.15;44.64
58668;BME280;59852;43.086;25.634;2023-05-08T08:23:04;98918.69;;;20.26;49.12
58668;BME280;59852;43.086;25.634;2023-05-08T08:25:30;98920.84;;;20.47;45.96
58668;BME280;59852;43.086;25.634;2023-05-08T08:27:57;98916.38;;;20.48;44.89
58668;BME280;59852;43.086;25.634;2023-05-08T08:30:22;98909.69;;;20.68;44.83
58668;BME280;59852;43.086;25.634;2023-05-08T08:32:47;98914.00;;;20.69;45.08
58668;BME280;59852;43.086;25.634;2023-05-08T08:35:13;98914.81;;;20.86;46.28
58668;BME280;59852;43.086;25.634;2023-05-08T08:37:38;98912.50;;;20.75;44.37
58668;BME280;59852;43.086;25.634;2023-05-08T08:40:04;98914.66;;;20.63;43.45
58668;BME280;59852;43.086;25.634;2023-05-08T08:42:29;98916.69;;;20.53;44.11
58668;BME280;59852;43.086;25.634;2023-05-08T08:44:55;98916.03;;;20.43;42.81
58668;BME280;59852;43.086;25.634;2023-05-08T08:47:26;98911.13;;;20.87;45.20
58668;BME280;59852;43.086;25.634;2023-05-08T08:49:52;98913.09;;;20.93;43.79
58668;BME280;59852;43.086;25.634;2023-05-08T08:52:38;98900.47;;;20.95;44.37
58668;BME280;59852;43.086;25.634;2023-05-08T08:55:05;98905.69;;;21.19;42.81
58668;BME280;59852;43.086;25.634;2023-05-08T08:57:33;98902.22;;;21.11;43.50
58668;BME280;59852;43.086;25.634;2023-05-08T09:00:00;98908.59;;;21.41;43.08
58668;BME280;59852;43.086;25.634;2023-05-08T09:02:28;98911.69;;;21.53;43.87
58668;BME280;59852;43.086;25.634;2023-05-08T09:04:55;98907.28;;;21.45;43.68
58668;BME280;59852;43.086;25.634;2023-05-08T09:07:21;98907.47;;;21.66;43.74
58668;BME280;59852;43.086;25.634;2023-05-08T09:09:46;98908.44;;;21.42;44.68
58668;BME280;59852;43.086;25.634;2023-05-08T09:12:13;98904.16;;;21.64;45.12
58668;BME280;59852;43.086;25.634;2023-05-08T09:14:38;98904.53;;;21.53;45.01
58668;BME280;59852;43.086;25.634;2023-05-08T09:17:04;98895.13;;;21.73;46.09
58668;BME280;59852;43.086;25.634;2023-05-08T09:19:29;98907.25;;;21.99;43.95
58668;BME280;59852;43.086;25.634;2023-05-08T09:21:57;98906.22;;;22.08;43.31
58668;BME280;59852;43.086;25.634;2023-05-08T09:24:23;98896.28;;;21.48;44.17
58668;BME280;59852;43.086;25.634;2023-05-08T09:26:48;98895.81;;;21.67;45.77
58668;BME280;59852;43.086;25.634;2023-05-08T09:29:15;98894.00;;;21.68;45.40
58668;BME280;59852;43.086;25.634;2023-05-08T09:31:44;98897.06;;;21.57;43.90
58668;BME280;59852;43.086;25.634;2023-05-08T09:34:11;98893.75;;;21.55;43.98
58668;BME280;59852;43.086;25.634;2023-05-08T09:36:47;98888.69;;;21.37;43.72
58668;BME280;59852;43.086;25.634;2023-05-08T09:39:12;98892.84;;;21.62;45.05
58668;BME280;59852;43.086;25.634;2023-05-08T09:42:01;98885.78;;;21.77;44.24
58668;BME280;59852;43.086;25.634;2023-05-08T09:44:27;98888.84;;;21.89;44.49
58668;BME280;59852;43.086;25.634;2023-05-08T09:47:08;98879.97;;;21.97;43.48
58668;BME280;59852;43.086;25.634;2023-05-08T09:49:34;98880.41;;;22.09;42.81
58668;BME280;59852;43.086;25.634;2023-05-08T09:51:59;98877.13;;;21.75;43.07
58668;BME280;59852;43.086;25.634;2023-05-08T09:54:25;98867.41;;;22.28;41.76
58668;BME280;59852;43.086;25.634;2023-05-08T09:56:50;98876.63;;;22.70;41.28
58668;BME280;59852;43.086;25.634;2023-05-08T09:59:25;98871.38;;;22.32;40.26
58668;BME280;59852;43.086;25.634;2023-05-08T10:01:51;98872.66;;;22.37;41.27
58668;BME280;59852;43.086;25.634;2023-05-08T10:04:17;98872.69;;;22.66;40.50
58668;BME280;59852;43.086;25.634;2023-05-08T10:06:42;98873.41;;;22.60;39.06
58668;BME280;59852;43.086;25.634;2023-05-08T10:09:12;98867.59;;;22.27;39.32
58668;BME280;59852;43.086;25.634;2023-05-08T10:11:38;98866.25;;;22.75;39.90
58668;BME280;59852;43.086;25.634;2023-05-08T10:14:04;98863.97;;;22.72;39.05
58668;BME280;59852;43.086;25.634;2023-05-08T10:16:29;98864.84;;;22.50;36.86
58668;BME280;59852;43.086;25.634;2023-05-08T10:18:59;98861.16;;;22.36;37.75
58668;BME280;59852;43.086;25.634;2023-05-08T10:21:27;98859.72;;;22.48;38.78
58668;BME280;59852;43.086;25.634;2023-05-08T10:23:53;98857.69;;;22.50;38.32
58668;BME280;59852;43.086;25.634;2023-05-08T10:26:24;98848.22;;;22.77;39.07
58668;BME280;59852;43.086;25.634;2023-05-08T10:28:55;98848.69;;;22.66;39.47
58668;BME280;59852;43.086;25.634;2023-05-08T10:31:24;98849.81;;;22.72;38.85
58668;BME280;59852;43.086;25.634;2023-05-08T10:33:50;98851.19;;;22.82;39.63
58668;BME280;59852;43.086;25.634;2023-05-08T10:36:18;98841.09;;;22.93;38.85
58668;BME280;59852;43.086;25.634;2023-05-08T10:38:44;98849.06;;;23.07;37.65
58668;BME280;59852;43.086;25.634;2023-05-08T10:41:10;98840.03;;;23.08;39.53
58668;BME280;59852;43.086;25.634;2023-05-08T10:43:36;98852.94;;;23.05;38.98
58668;BME280;59852;43.086;25.634;2023-05-08T10:46:08;98844.63;;;23.00;38.60
58668;BME280;59852;43.086;25.634;2023-05-08T10:53:33;98847.28;;;22.70;40.82
58668;BME280;59852;43.086;25.634;2023-05-08T10:56:00;98848.88;;;22.65;40.51
58668;BME280;59852;43.086;25.634;2023-05-08T10:58:30;98849.88;;;22.34;41.00
58668;BME280;59852;43.086;25.634;2023-05-08T11:03:24;98851.63;;;22.04;41.70
58668;BME280;59852;43.086;25.634;2023-05-08T11:05:50;98851.28;;;22.22;41.30
58668;BME280;59852;43.086;25.634;2023-05-08T11:08:17;98854.81;;;22.22;41.20
58668;BME280;59852;43.086;25.634;2023-05-08T11:10:43;98844.34;;;22.80;40.26
58668;BME280;59852;43.086;25.634;2023-05-08T11:13:10;98841.97;;;23.14;38.97
58668;BME280;59852;43.086;25.634;2023-05-08T11:18:05;98841.25;;;23.06;40.49
58668;BME280;59852;43.086;25.634;2023-05-08T11:20:37;98853.03;;;22.97;41.24
58668;BME280;59852;43.086;25.634;2023-05-08T11:23:19;98846.56;;;22.47;42.38
58668;BME280;59852;43.086;25.634;2023-05-08T11:25:45;98854.28;;;22.71;43.22
58668;BME280;59852;43.086;25.634;2023-05-08T11:28:11;98857.25;;;22.61;43.28
58668;BME280;59852;43.086;25.634;2023-05-08T11:30:36;98865.88;;;22.49;43.21
58668;BME280;59852;43.086;25.634;2023-05-08T11:43:25;98861.28;;;21.59;44.81
58668;BME280;59852;43.086;25.634;2023-05-08T11:45:51;98864.34;;;21.48;45.70
58668;BME280;59852;43.086;25.634;2023-05-08T11:48:17;98859.38;;;21.45;45.04
58668;BME280;59852;43.086;25.634;2023-05-08T11:50:43;98857.88;;;22.11;44.11
58668;BME280;59852;43.086;25.634;2023-05-08T11:53:08;98867.19;;;22.15;44.90
58668;BME280;59852;43.086;25.634;2023-05-08T11:55:34;98870.69;;;22.16;44.96
58668;BME280;59852;43.086;25.634;2023-05-08T11:58:00;98858.38;;;22.29;44.22
58668;BME280;59852;43.086;25.634;2023-05-08T12:00:25;98857.75;;;22.13;44.96
58668;BME280;59852;43.086;25.634;2023-05-08T12:02:51;98871.22;;;22.11;45.47
58668;BME280;59852;43.086;25.634;2023-05-08T12:05:19;98855.09;;;22.27;44.28
58668;BME280;59852;43.086;25.634;2023-05-08T12:07:50;98864.34;;;21.94;44.97
58668;BME280;59852;43.086;25.634;2023-05-08T12:10:15;98866.59;;;21.59;45.71
58668;BME280;59852;43.086;25.634;2023-05-08T12:12:41;98859.28;;;21.53;46.29
58668;BME280;59852;43.086;25.634;2023-05-08T12:15:12;98856.94;;;21.35;45.82
58668;BME280;59852;43.086;25.634;2023-05-08T12:17:42;98859.09;;;21.32;46.52
58668;BME280;59852;43.086;25.634;2023-05-08T12:20:15;98867.34;;;21.14;47.29
58668;BME280;59852;43.086;25.634;2023-05-08T12:22:40;98872.19;;;21.02;48.57
58668;BME280;59852;43.086;25.634;2023-05-08T12:25:07;98880.38;;;20.92;47.52
58668;BME280;59852;43.086;25.634;2023-05-08T12:27:34;98878.19;;;20.49;48.67
58668;BME280;59852;43.086;25.634;2023-05-08T12:30:03;98885.94;;;20.67;48.83
58668;BME280;59852;43.086;25.634;2023-05-08T12:32:29;98879.59;;;20.76;48.76
58668;BME280;59852;43.086;25.634;2023-05-08T12:34:54;98882.13;;;20.69;48.18
58668;BME280;59852;43.086;25.634;2023-05-08T12:37:25;98889.75;;;20.64;49.15
58668;BME280;59852;43.086;25.634;2023-05-08T12:39:51;98887.59;;;20.76;49.04
58668;BME280;59852;43.086;25.634;2023-05-08T12:42:16;98892.41;;;20.64;49.61
58668;BME280;59852;43.086;25.634;2023-05-08T12:44:42;98897.25;;;20.60;50.16
58668;BME280;59852;43.086;25.634;2023-05-08T12:47:14;98901.09;;;20.50;50.64
58668;BME280;59852;43.086;25.634;2023-05-08T12:49:39;98901.59;;;20.21;51.08
58668;BME280;59852;43.086;25.634;2023-05-08T12:52:05;98901.41;;;20.22;51.37
58668;BME280;59852;43.086;25.634;2023-05-08T12:54:34;98912.88;;;19.98;51.62
58668;BME280;59852;43.086;25.634;2023-05-08T12:57:00;98906.19;;;19.62;52.90
58668;BME280;59852;43.086;25.634;2023-05-08T12:59:30;98915.50;;;19.82;51.45
58668;BME280;59852;43.086;25.634;2023-05-08T13:01:56;98908.84;;;19.62;52.33
58668;BME280;59852;43.086;25.634;2023-05-08T13:04:21;98929.97;;;19.45;51.14
58668;BME280;59852;43.086;25.634;2023-05-08T13:06:56;98925.38;;;19.56;51.82
58668;BME280;59852;43.086;25.634;2023-05-08T13:09:21;98930.28;;;19.34;52.99
58668;BME280;59852;43.086;25.634;2023-05-08T13:11:47;98938.19;;;19.18;52.79
58668;BME280;59852;43.086;25.634;2023-05-08T13:14:12;98941.09;;;19.07;52.91
58668;BME280;59852;43.086;25.634;2023-05-08T13:16:44;98943.78;;;18.81;53.85
58668;BME280;59852;43.086;25.634;2023-05-08T13:19:10;98945.38;;;19.00;52.77
58668;BME280;59852;43.086;25.634;2023-05-08T13:21:35;98949.97;;;18.89;52.88
58668;BME280;59852;43.086;25.634;2023-05-08T13:24:00;98957.38;;;18.60;54.20
58668;BME280;59852;43.086;25.634;2023-05-08T13:26:26;98960.00;;;18.60;53.60
58668;BME280;59852;43.086;25.634;2023-05-08T13:28:51;98971.22;;;18.54;53.90
58668;BME280;59852;43.086;25.634;2023-05-08T13:31:17;98984.47;;;18.18;54.70
58668;BME280;59852;43.086;25.634;2023-05-08T13:33:42;98982.81;;;18.17;54.41
58668;BME280;59852;43.086;25.634;2023-05-08T13:36:07;98992.41;;;17.83;55.53
58668;BME280;59852;43.086;25.634;2023-05-08T13:38:33;98986.19;;;18.19;54.46
58668;BME280;59852;43.086;25.634;2023-05-08T13:41:01;98985.22;;;18.28;54.61
58668;BME280;59852;43.086;25.634;2023-05-08T13:43:26;98986.63;;;18.15;54.79
58668;BME280;59852;43.086;25.634;2023-05-08T13:45:55;98995.22;;;18.17;54.62
58668;BME280;59852;43.086;25.634;2023-05-08T13:48:20;98989.91;;;17.99;55.08
58668;BME280;59852;43.086;25.634;2023-05-08T13:50:45;98995.16;;;17.91;55.07
58668;BME280;59852;43.086;25.634;2023-05-08T13:53:11;98994.28;;;17.72;55.85